x

Nfb - Northwest Florida Bay, Fl (nfbf1) Weather Station

8:54pm - Mon 25th May 2015 All times are CDT. -4 hours from GMT.

  • Wind
    18mph, 23mph gusts
  • Air Temp 83°f
  • Sea Pressure 1020.2mb
  • Nfb - Northwest Florida Bay, Fl
  • Nfb - Northwest Florida Bay, Fl

More Historic Weather Station data

Upgrade to MSW Pro to gain access to the past 30 days of data for over 8000 Wavebouys and Weather Stations around the globe.

Join Pro

Comparision Forecast

View Surf forecast
   
Mon 05/25 8:54pm 18 23 mph 1020.2mb 83f
8:48pm 18 21 mph 1020.3mb 83f
8:42pm 21 24 mph 1020.2mb 83f
8:36pm 23 28 mph 1020.2mb 83f
6:54pm 22 24 mph 1019.2mb 85f
6:48pm 21 24 mph 1019.2mb 85f
6:42pm 20 22 mph 1019.2mb 84f
6:36pm 17 21 mph 1019.2mb 84f
5:54pm 21 25 mph 1019.1mb 85f
5:48pm 20 24 mph 1019.1mb 85f
5:42pm 20 24 mph 1019.1mb 85f
5:36pm 18 22 mph 1019.1mb 85f
4:54pm 17 22 mph 1019.5mb 84f
4:48pm 20 22 mph 1019.5mb 84f
4:42pm 20 23 mph 1019.5mb 84f
4:36pm 20 23 mph 1019.5mb 84f
3:54pm 18 25 mph 1019.8mb 84f
3:48pm 21 24 mph 1019.8mb 84f
3:42pm 20 24 mph 1019.9mb 84f
3:36pm 18 23 mph 1019.9mb 84f
2:54pm 20 23 mph 1020.2mb 84f
2:48pm 18 22 mph 1020.4mb 84f
2:42pm 18 21 mph 1020.4mb 84f
2:36pm 18 23 mph 1020.5mb 84f
1:54pm 18 22 mph 1020.8mb 84f
1:48pm 20 23 mph 1020.8mb 84f
1:42pm 20 22 mph 1020.7mb 84f
1:36pm 18 21 mph 1020.7mb 84f
12:54pm 18 21 mph 1020.8mb 84f
12:48pm 15 17 mph 1020.9mb 83f
12:42pm 16 22 mph 1020.9mb 83f
12:36pm 17 21 mph 1021mb 84f
12:30pm 17 20 mph 1021mb 83f
12:24pm 17 21 mph 1021mb 83f
12:18pm 10 14 mph 1021mb 82f
12:12pm 16 20 mph 1021mb 81f
12:06pm 16 23 mph 1021mb 81f
12:00pm 20 28 mph 1021mb 81f
11:54am 20 24 mph 1020.9mb 82f
11:48am 16 21 mph 1021mb 83f
11:42am 16 18 mph 1020.9mb 83f
11:36am 16 18 mph 1020.9mb 84f
10:54am 17 21 mph 1020.9mb 83f
10:48am 18 21 mph 1020.9mb 83f
10:42am 16 18 mph 1020.9mb 83f
10:36am 17 20 mph 1020.8mb 83f
9:54am 18 22 mph 1020.9mb 83f
9:48am 18 21 mph 1020.8mb 83f
9:42am 17 20 mph 1020.9mb 83f
9:36am 17 21 mph 1020.8mb 83f
9:30am 17 21 mph 1020.8mb 83f
9:24am 16 21 mph 1020.8mb 83f
9:18am 17 20 mph 1020.8mb 83f
9:12am 15 18 mph 1020.8mb 83f
9:06am 15 18 mph 1020.8mb 83f
9:00am 16 20 mph 1020.8mb 83f
8:54am 16 20 mph 1020.7mb 83f
8:48am 16 18 mph 1020.7mb 83f
8:42am 15 17 mph 1020.7mb 83f
8:36am 14 17 mph 1020.6mb 83f
7:54am 16 18 mph 1020.2mb 83f
7:48am 16 18 mph 1020.2mb 83f
7:42am 15 17 mph 1020mb 83f
7:36am 14 17 mph 1019.9mb 83f
7:30am 16 20 mph 1019.9mb 83f
7:24am 17 20 mph 1019.8mb 83f
7:18am 16 20 mph 1019.8mb 83f
7:12am 16 20 mph 1019.8mb 83f
7:06am 16 18 mph 1019.6mb 83f
7:00am 16 20 mph 1019.6mb 83f
6:54am 16 20 mph 1019.6mb 83f
6:48am 16 20 mph 1019.5mb 83f
6:42am 16 20 mph 1019.5mb 83f
6:36am 17 20 mph 1019.5mb 83f
6:30am 15 18 mph 1019.4mb 82f
6:24am 15 17 mph 1019.3mb 83f
6:18am 16 18 mph 1019.2mb 83f
6:12am 16 18 mph 1019.2mb 83f
6:06am 16 20 mph 1019.2mb 83f
6:00am 15 18 mph 1019.1mb 83f
5:54am 15 18 mph 1019.2mb 83f
5:48am 15 17 mph 1019.2mb 83f
5:42am 15 17 mph 1019.2mb 83f
5:36am 16 18 mph 1019.1mb 83f
4:54am 17 23 mph 1019.1mb 82f
4:48am 18 24 mph 1019.1mb 82f
4:42am 15 18 mph 1019.1mb 83f
4:36am 16 20 mph 1019.1mb 83f
3:54am 17 20 mph 1019.1mb 83f
3:48am 18 22 mph 1019mb 83f
3:42am 17 21 mph 1019mb 83f
3:36am 18 21 mph 1019mb 83f
2:54am 18 23 mph 1019.2mb 83f
2:48am 20 23 mph 1019.3mb 83f
2:42am 20 22 mph 1019.3mb 83f
2:36am 21 24 mph 1019.4mb 83f
1:54am 20 23 mph 1019.5mb 83f
1:48am 22 24 mph 1019.6mb 83f
1:42am 22 26 mph 1019.8mb 83f
1:36am 21 25 mph 1019.8mb 83f
12:54am 22 25 mph 1020.3mb 83f
12:48am 22 25 mph 1020.3mb 83f
12:42am 22 25 mph 1020.3mb 83f
12:36am 22 26 mph 1020.3mb 83f
Sun 05/24 11:54pm 22 25 mph 1020.7mb 83f
11:48pm 21 23 mph 1020.8mb 83f
11:42pm 23 25 mph 1020.6mb 83f
11:36pm 23 28 mph 1020.6mb 83f
10:54pm 21 24 mph 1020.4mb 84f
10:48pm 22 25 mph 1020.4mb 84f
10:42pm 21 25 mph 1020.3mb 84f
10:36pm 20 23 mph 1020.3mb 84f
9:54pm 22 26 mph 1020.2mb 84f
9:48pm 22 26 mph 1020.1mb 84f
9:42pm 22 26 mph 1019.9mb 84f
9:36pm 22 25 mph 1019.8mb 84f
8:54pm 22 26 mph 1019.5mb 84f
8:48pm 22 25 mph 1019.5mb 84f
8:42pm 22 26 mph 1019.4mb 84f
8:36pm 21 25 mph 1019.4mb 84f
7:54pm 20 22 mph 1019mb 85f
7:48pm 21 24 mph 1018.9mb 85f
7:42pm 21 25 mph 1018.9mb 85f
7:36pm 20 23 mph 1018.9mb 85f
6:54pm 20 23 mph 1018.6mb 85f
6:48pm 18 23 mph 1018.7mb 85f
6:42pm 20 24 mph 1018.7mb 85f
6:36pm 20 22 mph 1018.7mb 85f
5:54pm 20 22 mph 1018.8mb 85f
5:48pm 18 22 mph 1018.8mb 85f
5:42pm 17 21 mph 1018.7mb 85f
5:36pm 18 22 mph 1018.7mb 85f
4:54pm 17 21 mph 1019mb 85f
4:48pm 17 22 mph 1019mb 85f
3:54pm 16 20 mph 1019.4mb 85f
3:48pm 16 18 mph 1019.5mb 85f
3:42pm 15 20 mph 1019.6mb 85f
3:36pm 16 20 mph 1019.6mb 85f
2:54pm 15 17 mph 1019.8mb 85f
2:48pm 16 20 mph 1020mb 84f
2:42pm 16 18 mph 1020mb 84f
2:36pm 16 18 mph 1020mb 84f
1:54pm 16 18 mph 1020.4mb 84f
1:48pm 14 16 mph 1020.4mb 84f
1:42pm 15 18 mph 1020.6mb 84f
1:36pm 15 18 mph 1020.6mb 84f
12:54pm 15 17 mph 1020.9mb 84f
12:48pm 15 18 mph 1020.9mb 84f
12:42pm 16 18 mph 1021mb 84f
12:36pm 15 18 mph 1021mb 84f
12:30pm 15 17 mph 1021.1mb 84f
12:24pm 16 18 mph 1021.2mb 84f
12:18pm 16 20 mph 1021.2mb 84f
12:12pm 16 20 mph 1021.3mb 84f
12:06pm 16 18 mph 1021.3mb 84f
12:00pm 16 18 mph 1021.3mb 83f
11:54am 17 20 mph 1021.3mb 83f
11:48am 16 21 mph 1021.2mb 83f
11:42am 17 20 mph 1021.3mb 83f
11:36am 17 20 mph 1021.3mb 83f
10:54am 16 18 mph 1021.4mb 83f
10:48am 17 20 mph 1021.3mb 83f
10:42am 16 18 mph 1021.3mb 83f
10:36am 17 18 mph 1021.3mb 83f
9:54am 15 18 mph 1021.2mb 83f
9:48am 15 17 mph 1021.2mb 83f
9:42am 16 18 mph 1021.1mb 83f
9:36am 15 17 mph 1021mb 83f
8:54am 16 20 mph 1021.1mb 83f
8:48am 16 18 mph 1021.1mb 82f
8:42am 15 18 mph 1020.9mb 82f
8:36am 15 17 mph 1020.9mb 82f
7:54am 13 15 mph 1020.8mb 81f
7:48am 13 15 mph 1020.8mb 81f
7:42am 14 16 mph 1020.8mb 81f
7:36am 11 14 mph 1020.8mb 81f
6:54am 13 14 mph 1020.3mb 81f
6:48am 11 14 mph 1020.3mb 81f
6:42am 11 14 mph 1020.3mb 81f
6:36am 11 13 mph 1020.2mb 80f
5:54am 13 15 mph 1020mb 81f
5:48am 13 15 mph 1019.9mb 81f
5:42am 11 15 mph 1019.7mb 81f
5:36am 13 16 mph 1019.6mb 82f
4:54am 15 17 mph 1019.6mb 82f
4:48am 16 18 mph 1019.6mb 82f
3:54am 16 18 mph 1019.7mb 82f
3:48am 16 18 mph 1019.6mb 82f
3:42am 16 20 mph 1019.6mb 82f
3:36am 16 18 mph 1019.6mb 82f
3:30am 17 21 mph 1019.6mb 83f
3:24am 16 20 mph 1019.6mb 83f
3:18am 16 20 mph 1019.5mb 83f
3:12am 17 21 mph 1019.4mb 83f
3:06am 17 21 mph 1019.4mb 83f
3:00am 17 22 mph 1019.5mb 83f
2:54am 18 22 mph 1019.5mb 83f
2:48am 18 22 mph 1019.5mb 83f
2:42am 18 22 mph 1019.5mb 83f
2:36am 18 21 mph 1019.6mb 83f
1:54am 21 24 mph 1020mb 83f
1:48am 21 24 mph 1020.1mb 83f
12:54am 21 25 mph 1020.8mb 83f
12:48am 23 25 mph 1020.8mb 83f
12:42am 21 25 mph 1020.8mb 83f
12:36am 22 26 mph 1020.8mb 84f
Sat 05/23 11:54pm 23 26 mph 1021.1mb 84f
11:48pm 22 25 mph 1021.1mb 84f
11:42pm 23 25 mph 1021mb 84f
11:36pm 23 26 mph 1021mb 84f
10:54pm 20 24 mph 1020.9mb 83f
10:48pm 18 22 mph 1020.9mb 84f
10:42pm 22 24 mph 1020.9mb 84f
10:36pm 20 23 mph 1020.8mb 84f
9:54pm 17 23 mph 1020.6mb 83f
9:48pm 18 22 mph 1020.5mb 83f
9:42pm 17 22 mph 1020.5mb 83f
9:36pm 18 21 mph 1020.5mb 83f
9:30pm 18 23 mph 1020.5mb 83f
9:24pm 18 21 mph 1020.4mb 83f
9:18pm 20 22 mph 1020.4mb 83f
9:12pm 18 22 mph 1020.3mb 84f
9:06pm 18 23 mph 1020.4mb 84f
9:00pm 20 23 mph 1020.4mb 84f
8:54pm 17 21 mph 1020.4mb 84f
8:48pm 17 22 mph 1020.5mb 84f
8:42pm 17 21 mph 1020.5mb 84f
8:36pm 17 21 mph 1020.5mb 84f
7:54pm 20 23 mph 1020.5mb 85f
7:48pm 17 21 mph 1020.5mb 85f
7:42pm 18 22 mph 1020.5mb 85f
7:36pm 17 22 mph 1020.4mb 85f
6:54pm 16 20 mph 1020.1mb 85f
6:48pm 17 21 mph 1020.1mb 85f
6:42pm 17 18 mph 1020.1mb 85f
6:36pm 16 20 mph 1020.1mb 85f
5:54pm 16 21 mph 1020.1mb 85f
5:48pm 15 18 mph 1020mb 85f
5:42pm 16 20 mph 1020mb 85f
5:36pm 15 18 mph 1020mb 85f
4:54pm 17 22 mph 1019.9mb 85f
4:48pm 18 22 mph 1020mb 85f
4:42pm 18 23 mph 1019.9mb 85f
4:36pm 16 21 mph 1020.1mb 85f
3:54pm 15 18 mph 1020.7mb 85f
3:48pm 15 18 mph 1020.9mb 85f
3:42pm 15 18 mph 1020.9mb 85f
3:36pm 16 21 mph 1020.9mb 85f
2:54pm 15 18 mph 1021mb 85f
2:48pm 15 18 mph 1021.1mb 85f
2:42pm 15 18 mph 1021.2mb 85f
2:36pm 13 16 mph 1021.3mb 85f
1:54pm 16 18 mph 1021.6mb 85f
1:48pm 14 16 mph 1021.6mb 85f
1:42pm 15 20 mph 1021.6mb 85f
1:36pm 14 17 mph 1021.7mb 85f
12:54pm 11 15 mph 1022.2mb 85f
12:48pm 11 14 mph 1022.2mb 85f
12:42pm 11 15 mph 1022.3mb 85f
12:36pm 13 15 mph 1022.3mb 85f
11:54am 11 14 mph 1022.4mb 85f
11:48am 11 14 mph 1022.4mb 84f
11:42am 13 16 mph 1022.3mb 84f
11:36am 13 16 mph 1022.3mb 84f
10:54am 10 14 mph 1022.2mb 84f
10:48am 10 13 mph 1022.2mb 84f
10:42am 10 13 mph 1022.3mb 84f
10:36am 9 13 mph 1022.4mb 83f
9:54am 11 14 mph 1022.2mb 83f
9:48am 11 15 mph 1022.2mb 83f
9:42am 9 11 mph 1022.3mb 83f
9:36am 11 14 mph 1022.2mb 82f
8:54am 13 15 mph 1022mb 82f
8:48am 11 14 mph 1021.9mb 81f
8:42am 13 14 mph 1021.8mb 81f
8:36am 11 14 mph 1021.8mb 81f
7:54am 9 10 mph 1020.9mb 81f
7:48am 9 10 mph 1020.8mb 81f
6:54am 11 13 mph 1020.2mb 79f
6:48am 11 13 mph 1020.2mb 79f
6:42am 10 13 mph 1020.2mb 79f
6:36am 11 14 mph 1020.2mb 79f
5:54am 11 13 mph 1019.9mb 79f
5:48am 10 13 mph 1020mb 79f
4:54am 9 11 mph 1019.8mb 80f
4:48am 10 13 mph 1019.7mb 80f
3:54am 13 14 mph 1019.4mb 80f
3:48am 14 15 mph 1019.4mb 80f
3:42am 14 15 mph 1019.4mb 80f
3:36am 14 16 mph 1019.4mb 80f
2:54am 11 14 mph 1019.8mb 80f
2:48am 11 14 mph 1019.8mb 80f
1:54am 14 16 mph 1020.1mb 80f
1:48am 15 17 mph 1020.3mb 79f
12:54am 11 14 mph 1020.8mb 81f
12:48am 13 14 mph 1020.8mb 81f
12:42am 13 15 mph 1020.9mb 81f
12:36am 13 14 mph 1020.8mb 81f
Fri 05/22 11:54pm 9 10 mph 1020.8mb 82f
11:48pm 9 10 mph 1020.8mb 81f
11:42pm 10 11 mph 1020.9mb 81f
11:36pm 9 10 mph 1020.9mb 82f
10:54pm 8 9 mph 1020.6mb 84f
10:48pm 9 10 mph 1020.6mb 84f
10:42pm 8 10 mph 1020.6mb 84f
10:36pm 8 9 mph 1020.5mb 84f
9:54pm 7 9 mph 1019.8mb 83f
9:48pm 7 9 mph 1019.7mb 83f
9:42pm 9 10 mph 1019.8mb 83f
9:36pm 9 10 mph 1019.8mb 82f
8:54pm 6 8 mph 1019.6mb 81f
8:48pm 8 10 mph 1019.6mb 81f
8:42pm 7 9 mph 1019.5mb 81f
8:36pm 6 7 mph 1019.5mb 81f
7:54pm 13 15 mph 1019.5mb 80f
7:48pm 14 16 mph 1019.5mb 80f
7:42pm 14 15 mph 1019.5mb 80f
7:36pm 15 17 mph 1019.5mb 80f
6:54pm 13 16 mph 1019.4mb 83f
6:48pm 15 18 mph 1019.3mb 83f
6:42pm 18 22 mph 1019.1mb 83f
6:36pm 16 21 mph 1019.1mb 84f
5:54pm 5 6 mph 1018.7mb 85f
5:48pm 5 7 mph 1018.6mb 85f
5:42pm 5 6 mph 1018.6mb 85f
5:36pm 7 9 mph 1018.4mb 84f
4:54pm 9 11 mph 1018.1mb 84f
4:48pm 10 13 mph 1018mb 84f
4:42pm 11 14 mph 1017.8mb 84f
4:36pm 10 13 mph 1017.8mb 84f
3:54pm 10 14 mph 1018.3mb 84f
3:48pm 10 11 mph 1018.3mb 84f
3:42pm 10 11 mph 1018.4mb 84f
3:36pm 9 11 mph 1018.5mb 84f
2:54pm 8 9 mph 1019mb 84f
2:48pm 8 10 mph 1019.1mb 84f
2:42pm 8 9 mph 1019.1mb 84f
2:36pm 7 8 mph 1019.1mb 84f
1:54pm 6 8 mph 1019.1mb 84f
1:48pm 6 7 mph 1019.1mb 84f
1:42pm 6 7 mph 1019.1mb 84f
1:36pm 6 8 mph 1019.1mb 84f
12:54pm 3 5 mph 1019.2mb 84f
12:48pm 3 6 mph 1019.2mb 83f
12:42pm 5 7 mph 1019.3mb 83f
12:36pm 3 5 mph 1019.3mb 84f
11:54am 2 3 mph 1019.3mb 84f
11:48am  -  mph 1019.3mb 84f
11:42am  -  2 mph 1019.2mb 84f
11:36am  -  mph 1019.2mb 84f
10:54am  -  2 mph 1018.9mb 85f
10:48am  -  mph 1018.9mb 85f
10:42am  -  mph 1018.9mb 85f
10:36am  -  3 mph 1018.9mb 84f
9:54am 5 7 mph 1018.8mb 83f
9:48am 5 8 mph 1018.7mb 83f
9:42am 6 7 mph 1018.7mb 83f
9:36am 6 7 mph 1018.7mb 83f
8:54am 7 9 mph 1018.6mb 82f
8:48am 8 9 mph 1018.6mb 82f
8:42am 8 9 mph 1018.5mb 82f
8:36am 9 10 mph 1018.4mb 82f
7:54am 8 9 mph 1018.3mb 82f
7:48am 8 9 mph 1018.2mb 82f
7:42am 7 8 mph 1018.2mb 82f
7:36am 7 8 mph 1018.2mb 82f
6:54am 7 8 mph 1017.9mb 82f
6:48am 6 8 mph 1017.9mb 82f
6:42am 6 7 mph 1017.8mb 82f
6:36am 5 6 mph 1017.7mb 82f
5:54am 2 5 mph 1017.3mb 83f
5:48am 1 3 mph 1017.2mb 83f
5:42am 1 3 mph 1017.1mb 83f
5:36am 3 5 mph 1017mb 83f
4:54am 1 3 mph 1016.8mb 83f
4:48am 2 6 mph 1016.9mb 83f
4:42am 2 5 mph 1016.9mb 83f
4:36am 2 5 mph 1016.9mb 83f
3:54am 5 8 mph 1016.9mb 83f
3:48am 6 9 mph 1016.9mb 83f
3:42am 5 8 mph 1016.8mb 83f
3:36am 6 9 mph 1016.7mb 83f
2:54am 6 8 mph 1016.6mb 83f
2:48am 7 9 mph 1016.7mb 83f
2:42am 6 8 mph 1016.8mb 83f
2:36am 6 8 mph 1016.8mb 83f